sensor_id;sensor_type;location;lat;lon;timestamp;temperature;humidity
62991;DHT22;49084;48.204;16.202;2022-11-15T00:01:24;6.40;99.90
62991;DHT22;49084;48.204;16.202;2022-11-15T00:03:53;6.40;99.90
62991;DHT22;49084;48.204;16.202;2022-11-15T00:06:19;6.50;99.90
62991;DHT22;49084;48.204;16.202;2022-11-15T00:08:44;6.50;99.90
62991;DHT22;49084;48.204;16.202;2022-11-15T00:11:12;6.50;99.90
62991;DHT22;49084;48.204;16.202;2022-11-15T00:13:38;6.50;99.90
62991;DHT22;49084;48.204;16.202;2022-11-15T00:16:04;6.50;99.90
62991;DHT22;49084;48.204;16.202;2022-11-15T00:18:30;6.60;99.90
62991;DHT22;49084;48.204;16.202;2022-11-15T00:21:02;6.50;99.90
62991;DHT22;49084;48.204;16.202;2022-11-15T00:23:28;6.60;99.90
62991;DHT22;49084;48.204;16.202;2022-11-15T00:25:57;6.60;99.90
62991;DHT22;49084;48.204;16.202;2022-11-15T00:28:24;6.60;99.90
62991;DHT22;49084;48.204;16.202;2022-11-15T00:30:50;6.60;99.90
62991;DHT22;49084;48.204;16.202;2022-11-15T00:33:16;6.60;99.90
62991;DHT22;49084;48.204;16.202;2022-11-15T00:35:41;6.60;99.90
62991;DHT22;49084;48.204;16.202;2022-11-15T00:38:07;6.60;99.90
62991;DHT22;49084;48.204;16.202;2022-11-15T00:40:33;6.60;99.90
62991;DHT22;49084;48.204;16.202;2022-11-15T00:42:58;6.60;99.90
62991;DHT22;49084;48.204;16.202;2022-11-15T00:45:24;6.60;99.90
62991;DHT22;49084;48.204;16.202;2022-11-15T00:47:51;6.60;99.90
62991;DHT22;49084;48.204;16.202;2022-11-15T00:50:17;6.60;99.90
62991;DHT22;49084;48.204;16.202;2022-11-15T00:52:43;6.60;99.90
62991;DHT22;49084;48.204;16.202;2022-11-15T00:55:18;6.60;99.90
62991;DHT22;49084;48.204;16.202;2022-11-15T00:57:45;6.60;99.90
62991;DHT22;49084;48.204;16.202;2022-11-15T01:00:11;6.60;99.90
62991;DHT22;49084;48.204;16.202;2022-11-15T01:02:37;6.60;99.90
62991;DHT22;49084;48.204;16.202;2022-11-15T01:05:03;6.60;99.90
62991;DHT22;49084;48.204;16.202;2022-11-15T01:07:28;6.60;99.90
62991;DHT22;49084;48.204;16.202;2022-11-15T01:09:54;6.60;99.90
62991;DHT22;49084;48.204;16.202;2022-11-15T01:12:20;6.60;99.90
62991;DHT22;49084;48.204;16.202;2022-11-15T01:14:45;6.60;99.90
62991;DHT22;49084;48.204;16.202;2022-11-15T01:17:11;6.60;99.90
62991;DHT22;49084;48.204;16.202;2022-11-15T01:19:37;6.60;99.90
62991;DHT22;49084;48.204;16.202;2022-11-15T01:22:02;6.60;99.90
62991;DHT22;49084;48.204;16.202;2022-11-15T01:24:28;6.60;99.90
62991;DHT22;49084;48.204;16.202;2022-11-15T01:26:53;6.70;99.90
62991;DHT22;49084;48.204;16.202;2022-11-15T01:29:19;6.60;99.90
62991;DHT22;49084;48.204;16.202;2022-11-15T01:31:45;6.60;99.90
62991;DHT22;49084;48.204;16.202;2022-11-15T01:34:10;6.60;99.90
62991;DHT22;49084;48.204;16.202;2022-11-15T01:36:36;6.60;99.90
62991;DHT22;49084;48.204;16.202;2022-11-15T01:39:02;6.60;99.90
62991;DHT22;49084;48.204;16.202;2022-11-15T01:41:32;6.60;99.90
62991;DHT22;49084;48.204;16.202;2022-11-15T01:46:56;6.60;99.90
62991;DHT22;49084;48.204;16.202;2022-11-15T01:49:23;6.60;99.90
62991;DHT22;49084;48.204;16.202;2022-11-15T01:51:49;6.60;99.90
62991;DHT22;49084;48.204;16.202;2022-11-15T01:54:18;6.60;99.90
62991;DHT22;49084;48.204;16.202;2022-11-15T01:57:06;6.60;99.90
62991;DHT22;49084;48.204;16.202;2022-11-15T01:59:33;6.60;99.90
62991;DHT22;49084;48.204;16.202;2022-11-15T02:02:00;6.70;99.90
62991;DHT22;49084;48.204;16.202;2022-11-15T02:04:26;6.70;99.90
62991;DHT22;49084;48.204;16.202;2022-11-15T02:06:53;6.70;99.90
62991;DHT22;49084;48.204;16.202;2022-11-15T02:09:19;6.70;99.90
62991;DHT22;49084;48.204;16.202;2022-11-15T02:11:46;6.70;99.90
62991;DHT22;49084;48.204;16.202;2022-11-15T02:14:13;6.70;99.90
62991;DHT22;49084;48.204;16.202;2022-11-15T02:30:57;6.70;99.90
62991;DHT22;49084;48.204;16.202;2022-11-15T02:33:53;6.70;99.90
62991;DHT22;49084;48.204;16.202;2022-11-15T02:41:56;6.70;99.90
62991;DHT22;49084;48.204;16.202;2022-11-15T02:44:37;6.70;99.90
62991;DHT22;49084;48.204;16.202;2022-11-15T02:47:07;6.70;99.90
62991;DHT22;49084;48.204;16.202;2022-11-15T02:49:50;6.70;99.90
62991;DHT22;49084;48.204;16.202;2022-11-15T02:52:17;6.70;99.90
62991;DHT22;49084;48.204;16.202;2022-11-15T02:54:56;6.70;99.90
62991;DHT22;49084;48.204;16.202;2022-11-15T02:57:49;6.70;99.90
62991;DHT22;49084;48.204;16.202;2022-11-15T03:00:20;6.70;99.90
62991;DHT22;49084;48.204;16.202;2022-11-15T03:03:08;6.80;99.90
62991;DHT22;49084;48.204;16.202;2022-11-15T03:05:53;6.80;99.90
62991;DHT22;49084;48.204;16.202;2022-11-15T03:08:31;6.80;99.90
62991;DHT22;49084;48.204;16.202;2022-11-15T03:11:07;6.80;99.90
62991;DHT22;49084;48.204;16.202;2022-11-15T03:19:18;6.90;99.90
62991;DHT22;49084;48.204;16.202;2022-11-15T03:21:46;6.80;99.90
62991;DHT22;49084;48.204;16.202;2022-11-15T03:24:14;6.90;99.90
62991;DHT22;49084;48.204;16.202;2022-11-15T03:26:42;6.90;99.90
62991;DHT22;49084;48.204;16.202;2022-11-15T03:29:16;6.90;99.90
62991;DHT22;49084;48.204;16.202;2022-11-15T03:31:49;6.90;99.90
62991;DHT22;49084;48.204;16.202;2022-11-15T03:35:37;6.80;99.90
62991;DHT22;49084;48.204;16.202;2022-11-15T03:37:41;6.90;99.90
62991;DHT22;49084;48.204;16.202;2022-11-15T03:40:08;6.90;99.90
62991;DHT22;49084;48.204;16.202;2022-11-15T03:42:51;6.90;99.90
62991;DHT22;49084;48.204;16.202;2022-11-15T03:45:29;6.90;99.90
62991;DHT22;49084;48.204;16.202;2022-11-15T03:48:05;6.90;99.90
62991;DHT22;49084;48.204;16.202;2022-11-15T03:50:33;6.80;99.90
62991;DHT22;49084;48.204;16.202;2022-11-15T03:53:00;6.90;99.90
62991;DHT22;49084;48.204;16.202;2022-11-15T03:55:26;6.90;99.90
62991;DHT22;49084;48.204;16.202;2022-11-15T03:57:54;6.90;99.90
62991;DHT22;49084;48.204;16.202;2022-11-15T04:00:21;6.90;99.90
62991;DHT22;49084;48.204;16.202;2022-11-15T04:02:47;6.90;99.90
62991;DHT22;49084;48.204;16.202;2022-11-15T04:05:13;6.90;99.90
62991;DHT22;49084;48.204;16.202;2022-11-15T04:07:38;6.90;99.90
62991;DHT22;49084;48.204;16.202;2022-11-15T04:10:04;6.90;99.90
62991;DHT22;49084;48.204;16.202;2022-11-15T04:12:35;6.90;99.90
62991;DHT22;49084;48.204;16.202;2022-11-15T04:15:07;6.90;99.90
62991;DHT22;49084;48.204;16.202;2022-11-15T04:20:15;6.90;99.90
62991;DHT22;49084;48.204;16.202;2022-11-15T04:23:01;7.00;99.90
62991;DHT22;49084;48.204;16.202;2022-11-15T04:25:45;7.00;99.90
62991;DHT22;49084;48.204;16.202;2022-11-15T04:28:12;7.00;99.90
62991;DHT22;49084;48.204;16.202;2022-11-15T04:30:38;7.00;99.90
62991;DHT22;49084;48.204;16.202;2022-11-15T04:33:04;6.90;99.90
62991;DHT22;49084;48.204;16.202;2022-11-15T04:35:30;6.90;99.90
62991;DHT22;49084;48.204;16.202;2022-11-15T04:37:56;6.90;99.90
62991;DHT22;49084;48.204;16.202;2022-11-15T04:40:22;6.90;99.90
62991;DHT22;49084;48.204;16.202;2022-11-15T04:42:48;6.90;99.90
62991;DHT22;49084;48.204;16.202;2022-11-15T04:45:14;6.90;99.90
62991;DHT22;49084;48.204;16.202;2022-11-15T04:47:40;6.90;99.90
62991;DHT22;49084;48.204;16.202;2022-11-15T04:50:06;6.90;99.90
62991;DHT22;49084;48.204;16.202;2022-11-15T04:52:31;6.90;99.90
62991;DHT22;49084;48.204;16.202;2022-11-15T04:54:57;6.90;99.90
62991;DHT22;49084;48.204;16.202;2022-11-15T04:57:23;6.80;99.90
62991;DHT22;49084;48.204;16.202;2022-11-15T04:59:48;6.80;99.90
62991;DHT22;49084;48.204;16.202;2022-11-15T05:02:14;6.80;99.90
62991;DHT22;49084;48.204;16.202;2022-11-15T05:04:40;6.80;99.90
62991;DHT22;49084;48.204;16.202;2022-11-15T05:07:05;6.80;99.90
62991;DHT22;49084;48.204;16.202;2022-11-15T05:09:31;6.80;99.90
62991;DHT22;49084;48.204;16.202;2022-11-15T05:11:56;6.80;99.90
62991;DHT22;49084;48.204;16.202;2022-11-15T05:14:22;6.80;99.90
62991;DHT22;49084;48.204;16.202;2022-11-15T05:16:48;6.80;99.90
62991;DHT22;49084;48.204;16.202;2022-11-15T05:19:14;6.80;99.90
62991;DHT22;49084;48.204;16.202;2022-11-15T05:21:39;6.80;99.90
62991;DHT22;49084;48.204;16.202;2022-11-15T05:24:05;6.80;99.90
62991;DHT22;49084;48.204;16.202;2022-11-15T05:26:32;6.80;99.90
62991;DHT22;49084;48.204;16.202;2022-11-15T05:28:58;6.80;99.90
62991;DHT22;49084;48.204;16.202;2022-11-15T05:31:25;6.80;99.90
62991;DHT22;49084;48.204;16.202;2022-11-15T05:33:52;6.80;99.90
62991;DHT22;49084;48.204;16.202;2022-11-15T05:36:52;6.80;99.90
62991;DHT22;49084;48.204;16.202;2022-11-15T05:39:17;6.80;99.90
62991;DHT22;49084;48.204;16.202;2022-11-15T05:41:46;6.80;99.90
62991;DHT22;49084;48.204;16.202;2022-11-15T05:44:14;6.80;99.90
62991;DHT22;49084;48.204;16.202;2022-11-15T05:46:42;6.80;99.90
62991;DHT22;49084;48.204;16.202;2022-11-15T05:49:11;6.80;99.90
62991;DHT22;49084;48.204;16.202;2022-11-15T05:51:38;6.80;99.90
62991;DHT22;49084;48.204;16.202;2022-11-15T05:54:04;6.80;99.90
62991;DHT22;49084;48.204;16.202;2022-11-15T05:56:30;6.80;99.90
62991;DHT22;49084;48.204;16.202;2022-11-15T05:58:57;6.80;99.90
62991;DHT22;49084;48.204;16.202;2022-11-15T06:01:25;6.80;99.90
62991;DHT22;49084;48.204;16.202;2022-11-15T06:03:51;6.80;99.90
62991;DHT22;49084;48.204;16.202;2022-11-15T06:06:17;6.70;99.90
62991;DHT22;49084;48.204;16.202;2022-11-15T06:08:43;6.70;99.90
62991;DHT22;49084;48.204;16.202;2022-11-15T06:11:08;6.70;99.90
62991;DHT22;49084;48.204;16.202;2022-11-15T06:13:34;6.70;99.90
62991;DHT22;49084;48.204;16.202;2022-11-15T06:16:00;6.70;99.90
62991;DHT22;49084;48.204;16.202;2022-11-15T06:18:26;6.70;99.90
62991;DHT22;49084;48.204;16.202;2022-11-15T06:20:51;6.70;99.90
62991;DHT22;49084;48.204;16.202;2022-11-15T06:23:17;6.70;99.90
62991;DHT22;49084;48.204;16.202;2022-11-15T06:25:43;6.70;99.90
62991;DHT22;49084;48.204;16.202;2022-11-15T06:28:09;6.70;99.90
62991;DHT22;49084;48.204;16.202;2022-11-15T06:30:34;6.70;99.90
62991;DHT22;49084;48.204;16.202;2022-11-15T06:33:01;6.70;99.90
62991;DHT22;49084;48.204;16.202;2022-11-15T06:35:27;6.70;99.90
62991;DHT22;49084;48.204;16.202;2022-11-15T06:37:53;6.80;99.90
62991;DHT22;49084;48.204;16.202;2022-11-15T06:40:19;6.80;99.90
62991;DHT22;49084;48.204;16.202;2022-11-15T06:42:44;6.80;99.90
62991;DHT22;49084;48.204;16.202;2022-11-15T06:45:10;6.80;99.90
62991;DHT22;49084;48.204;16.202;2022-11-15T06:47:42;6.80;99.90
62991;DHT22;49084;48.204;16.202;2022-11-15T06:50:09;6.80;99.90
62991;DHT22;49084;48.204;16.202;2022-11-15T06:52:34;6.80;99.90
62991;DHT22;49084;48.204;16.202;2022-11-15T06:55:00;6.80;99.90
62991;DHT22;49084;48.204;16.202;2022-11-15T06:57:26;6.80;99.90
62991;DHT22;49084;48.204;16.202;2022-11-15T06:59:51;6.90;99.90
62991;DHT22;49084;48.204;16.202;2022-11-15T07:02:17;6.90;99.90
62991;DHT22;49084;48.204;16.202;2022-11-15T07:04:43;6.90;99.90
62991;DHT22;49084;48.204;16.202;2022-11-15T07:07:09;6.90;99.90
62991;DHT22;49084;48.204;16.202;2022-11-15T07:09:35;7.00;99.90
62991;DHT22;49084;48.204;16.202;2022-11-15T07:12:00;7.00;99.90
62991;DHT22;49084;48.204;16.202;2022-11-15T07:14:26;7.00;99.90
62991;DHT22;49084;48.204;16.202;2022-11-15T07:16:51;7.00;99.90
62991;DHT22;49084;48.204;16.202;2022-11-15T07:19:17;7.00;99.90
62991;DHT22;49084;48.204;16.202;2022-11-15T07:21:43;7.10;99.90
62991;DHT22;49084;48.204;16.202;2022-11-15T07:24:09;7.10;99.90
62991;DHT22;49084;48.204;16.202;2022-11-15T07:26:34;7.10;99.90
62991;DHT22;49084;48.204;16.202;2022-11-15T07:29:00;7.10;99.90
62991;DHT22;49084;48.204;16.202;2022-11-15T07:31:25;7.10;99.90
62991;DHT22;49084;48.204;16.202;2022-11-15T07:33:51;7.00;99.90
62991;DHT22;49084;48.204;16.202;2022-11-15T07:36:17;7.00;99.90
62991;DHT22;49084;48.204;16.202;2022-11-15T07:38:42;7.00;99.90
62991;DHT22;49084;48.204;16.202;2022-11-15T07:41:08;7.10;99.90
62991;DHT22;49084;48.204;16.202;2022-11-15T07:43:34;7.10;99.90
62991;DHT22;49084;48.204;16.202;2022-11-15T07:46:09;7.10;99.90
62991;DHT22;49084;48.204;16.202;2022-11-15T07:48:40;7.00;99.90
62991;DHT22;49084;48.204;16.202;2022-11-15T07:51:14;7.00;99.90
62991;DHT22;49084;48.204;16.202;2022-11-15T07:53:43;7.10;99.90
62991;DHT22;49084;48.204;16.202;2022-11-15T07:56:11;7.10;99.90
62991;DHT22;49084;48.204;16.202;2022-11-15T07:58:37;7.10;99.90
62991;DHT22;49084;48.204;16.202;2022-11-15T08:01:08;7.00;99.90
62991;DHT22;49084;48.204;16.202;2022-11-15T08:03:34;7.00;99.90
62991;DHT22;49084;48.204;16.202;2022-11-15T08:06:00;7.00;99.90
62991;DHT22;49084;48.204;16.202;2022-11-15T08:08:25;6.90;99.90
62991;DHT22;49084;48.204;16.202;2022-11-15T08:10:51;6.90;99.90
62991;DHT22;49084;48.204;16.202;2022-11-15T08:13:17;6.90;99.90
62991;DHT22;49084;48.204;16.202;2022-11-15T08:15:43;6.90;99.90
62991;DHT22;49084;48.204;16.202;2022-11-15T08:18:13;6.80;99.90
62991;DHT22;49084;48.204;16.202;2022-11-15T08:20:40;6.90;99.90
62991;DHT22;49084;48.204;16.202;2022-11-15T08:23:07;6.90;99.90
62991;DHT22;49084;48.204;16.202;2022-11-15T08:25:34;6.90;99.90
62991;DHT22;49084;48.204;16.202;2022-11-15T08:28:02;7.00;99.90
62991;DHT22;49084;48.204;16.202;2022-11-15T08:30:28;7.00;99.90
62991;DHT22;49084;48.204;16.202;2022-11-15T08:32:57;7.00;99.90
62991;DHT22;49084;48.204;16.202;2022-11-15T08:35:23;7.00;99.90
62991;DHT22;49084;48.204;16.202;2022-11-15T08:37:49;7.00;99.90
62991;DHT22;49084;48.204;16.202;2022-11-15T08:40:15;7.00;99.90
62991;DHT22;49084;48.204;16.202;2022-11-15T08:42:41;6.90;99.90
62991;DHT22;49084;48.204;16.202;2022-11-15T08:45:08;6.90;99.90
62991;DHT22;49084;48.204;16.202;2022-11-15T08:47:34;6.90;99.90
62991;DHT22;49084;48.204;16.202;2022-11-15T08:50:00;6.90;99.90
62991;DHT22;49084;48.204;16.202;2022-11-15T08:52:26;6.90;99.90
62991;DHT22;49084;48.204;16.202;2022-11-15T08:54:51;6.90;99.90
62991;DHT22;49084;48.204;16.202;2022-11-15T08:57:17;7.00;99.90
62991;DHT22;49084;48.204;16.202;2022-11-15T08:59:43;7.00;99.90
62991;DHT22;49084;48.204;16.202;2022-11-15T09:02:13;7.00;99.90
62991;DHT22;49084;48.204;16.202;2022-11-15T09:04:41;7.10;99.90
62991;DHT22;49084;48.204;16.202;2022-11-15T09:07:08;7.00;99.90
62991;DHT22;49084;48.204;16.202;2022-11-15T09:09:34;7.00;99.90
62991;DHT22;49084;48.204;16.202;2022-11-15T09:12:00;7.00;99.90
62991;DHT22;49084;48.204;16.202;2022-11-15T09:14:26;6.90;99.90
62991;DHT22;49084;48.204;16.202;2022-11-15T09:16:51;7.00;99.90
62991;DHT22;49084;48.204;16.202;2022-11-15T09:19:17;7.00;99.90
62991;DHT22;49084;48.204;16.202;2022-11-15T09:21:43;7.00;99.90
62991;DHT22;49084;48.204;16.202;2022-11-15T09:24:08;7.00;99.90
62991;DHT22;49084;48.204;16.202;2022-11-15T09:26:34;7.00;99.90
62991;DHT22;49084;48.204;16.202;2022-11-15T09:29:00;6.90;99.90
62991;DHT22;49084;48.204;16.202;2022-11-15T09:31:26;7.00;99.90
62991;DHT22;49084;48.204;16.202;2022-11-15T09:33:52;6.90;99.90
62991;DHT22;49084;48.204;16.202;2022-11-15T09:36:18;6.90;99.90
62991;DHT22;49084;48.204;16.202;2022-11-15T09:38:44;6.90;99.90
62991;DHT22;49084;48.204;16.202;2022-11-15T09:44:15;6.90;99.90
62991;DHT22;49084;48.204;16.202;2022-11-15T09:47:05;7.00;99.90
62991;DHT22;49084;48.204;16.202;2022-11-15T09:49:34;7.00;99.90
62991;DHT22;49084;48.204;16.202;2022-11-15T09:52:00;7.10;99.90
62991;DHT22;49084;48.204;16.202;2022-11-15T09:54:35;7.10;99.90
62991;DHT22;49084;48.204;16.202;2022-11-15T09:57:33;7.10;99.90
62991;DHT22;49084;48.204;16.202;2022-11-15T10:00:21;7.10;99.90
62991;DHT22;49084;48.204;16.202;2022-11-15T10:05:21;7.20;99.90
62991;DHT22;49084;48.204;16.202;2022-11-15T10:10:43;7.20;99.90
62991;DHT22;49084;48.204;16.202;2022-11-15T10:13:23;7.20;99.90
62991;DHT22;49084;48.204;16.202;2022-11-15T10:15:50;7.30;99.90
62991;DHT22;49084;48.204;16.202;2022-11-15T10:18:47;7.30;99.90
62991;DHT22;49084;48.204;16.202;2022-11-15T10:21:22;7.30;99.90
62991;DHT22;49084;48.204;16.202;2022-11-15T10:23:50;7.30;99.90
62991;DHT22;49084;48.204;16.202;2022-11-15T10:26:16;7.40;99.90
62991;DHT22;49084;48.204;16.202;2022-11-15T10:28:42;7.40;99.90
62991;DHT22;49084;48.204;16.202;2022-11-15T10:31:24;7.50;99.90
62991;DHT22;49084;48.204;16.202;2022-11-15T10:33:51;7.50;99.90
62991;DHT22;49084;48.204;16.202;2022-11-15T10:36:23;7.50;99.90
62991;DHT22;49084;48.204;16.202;2022-11-15T10:38:54;7.50;99.90
62991;DHT22;49084;48.204;16.202;2022-11-15T10:41:22;7.50;99.90
62991;DHT22;49084;48.204;16.202;2022-11-15T10:44:11;7.50;99.90
62991;DHT22;49084;48.204;16.202;2022-11-15T10:46:40;7.60;99.90
62991;DHT22;49084;48.204;16.202;2022-11-15T10:49:15;7.70;99.90
62991;DHT22;49084;48.204;16.202;2022-11-15T10:52:28;7.80;99.90
62991;DHT22;49084;48.204;16.202;2022-11-15T10:54:50;7.80;99.90
62991;DHT22;49084;48.204;16.202;2022-11-15T10:57:23;7.80;99.90
62991;DHT22;49084;48.204;16.202;2022-11-15T10:59:52;7.70;99.90
62991;DHT22;49084;48.204;16.202;2022-11-15T11:02:28;7.80;99.90
62991;DHT22;49084;48.204;16.202;2022-11-15T11:04:55;7.80;99.90
62991;DHT22;49084;48.204;16.202;2022-11-15T11:07:23;7.80;99.90
62991;DHT22;49084;48.204;16.202;2022-11-15T11:09:58;7.80;99.90
62991;DHT22;49084;48.204;16.202;2022-11-15T11:12:32;7.70;99.90
62991;DHT22;49084;48.204;16.202;2022-11-15T11:15:00;7.80;99.90
62991;DHT22;49084;48.204;16.202;2022-11-15T11:20:02;7.90;99.90
62991;DHT22;49084;48.204;16.202;2022-11-15T11:28:22;7.80;99.90
62991;DHT22;49084;48.204;16.202;2022-11-15T11:31:10;7.80;99.90
62991;DHT22;49084;48.204;16.202;2022-11-15T11:42:30;8.00;99.90
62991;DHT22;49084;48.204;16.202;2022-11-15T11:45:12;8.00;99.90
62991;DHT22;49084;48.204;16.202;2022-11-15T11:47:47;7.90;99.90
62991;DHT22;49084;48.204;16.202;2022-11-15T11:50:34;7.80;99.90
62991;DHT22;49084;48.204;16.202;2022-11-15T11:53:23;7.90;99.90
62991;DHT22;49084;48.204;16.202;2022-11-15T11:55:54;7.90;99.90
62991;DHT22;49084;48.204;16.202;2022-11-15T11:58:44;7.90;99.90
62991;DHT22;49084;48.204;16.202;2022-11-15T12:03:45;7.90;99.90
62991;DHT22;49084;48.204;16.202;2022-11-15T12:06:19;7.80;99.90
62991;DHT22;49084;48.204;16.202;2022-11-15T12:09:04;7.80;99.90
62991;DHT22;49084;48.204;16.202;2022-11-15T12:11:50;7.80;99.90
62991;DHT22;49084;48.204;16.202;2022-11-15T12:14:40;7.90;99.90
62991;DHT22;49084;48.204;16.202;2022-11-15T12:17:11;7.90;99.90
62991;DHT22;49084;48.204;16.202;2022-11-15T12:19:38;7.90;99.90
62991;DHT22;49084;48.204;16.202;2022-11-15T12:22:20;8.00;99.90
62991;DHT22;49084;48.204;16.202;2022-11-15T12:28:00;8.10;99.90
62991;DHT22;49084;48.204;16.202;2022-11-15T12:30:19;8.00;99.90
62991;DHT22;49084;48.204;16.202;2022-11-15T12:32:52;8.00;99.90
62991;DHT22;49084;48.204;16.202;2022-11-15T12:35:36;8.10;99.90
62991;DHT22;49084;48.204;16.202;2022-11-15T12:38:03;8.10;99.90
62991;DHT22;49084;48.204;16.202;2022-11-15T12:43:43;8.10;99.90
62991;DHT22;49084;48.204;16.202;2022-11-15T12:48:49;8.20;99.90
62991;DHT22;49084;48.204;16.202;2022-11-15T12:51:15;8.20;99.90
62991;DHT22;49084;48.204;16.202;2022-11-15T12:53:41;8.20;99.90
62991;DHT22;49084;48.204;16.202;2022-11-15T12:56:17;8.20;99.90
62991;DHT22;49084;48.204;16.202;2022-11-15T12:59:06;8.20;99.90
62991;DHT22;49084;48.204;16.202;2022-11-15T13:06:58;8.20;99.90
62991;DHT22;49084;48.204;16.202;2022-11-15T13:14:51;8.20;99.90
62991;DHT22;49084;48.204;16.202;2022-11-15T13:17:32;8.20;99.90
62991;DHT22;49084;48.204;16.202;2022-11-15T13:28:26;8.00;99.90
62991;DHT22;49084;48.204;16.202;2022-11-15T13:30:55;8.00;99.90
62991;DHT22;49084;48.204;16.202;2022-11-15T13:33:35;8.00;99.90
62991;DHT22;49084;48.204;16.202;2022-11-15T13:36:05;8.00;99.90
62991;DHT22;49084;48.204;16.202;2022-11-15T13:38:34;8.10;99.90
62991;DHT22;49084;48.204;16.202;2022-11-15T13:41:16;8.10;99.90
62991;DHT22;49084;48.204;16.202;2022-11-15T13:43:42;8.10;99.90
62991;DHT22;49084;48.204;16.202;2022-11-15T13:48:41;8.10;99.90
62991;DHT22;49084;48.204;16.202;2022-11-15T13:51:18;8.10;99.90
62991;DHT22;49084;48.204;16.202;2022-11-15T13:53:50;8.00;99.90
62991;DHT22;49084;48.204;16.202;2022-11-15T13:56:20;8.00;99.90
62991;DHT22;49084;48.204;16.202;2022-11-15T13:58:46;8.00;99.90
62991;DHT22;49084;48.204;16.202;2022-11-15T14:01:17;8.00;99.90
62991;DHT22;49084;48.204;16.202;2022-11-15T14:03:54;8.00;99.90
62991;DHT22;49084;48.204;16.202;2022-11-15T14:06:23;8.00;99.90
62991;DHT22;49084;48.204;16.202;2022-11-15T14:09:29;8.00;99.90
62991;DHT22;49084;48.204;16.202;2022-11-15T14:11:56;8.00;99.90
62991;DHT22;49084;48.204;16.202;2022-11-15T14:14:23;8.00;99.90
62991;DHT22;49084;48.204;16.202;2022-11-15T14:16:52;8.10;99.90
62991;DHT22;49084;48.204;16.202;2022-11-15T14:25:07;8.00;99.90
62991;DHT22;49084;48.204;16.202;2022-11-15T14:27:39;8.00;99.90
62991;DHT22;49084;48.204;16.202;2022-11-15T14:30:05;8.00;99.90
62991;DHT22;49084;48.204;16.202;2022-11-15T14:32:47;8.00;99.90
62991;DHT22;49084;48.204;16.202;2022-11-15T14:35:19;8.00;99.90
62991;DHT22;49084;48.204;16.202;2022-11-15T14:37:46;8.00;99.90
62991;DHT22;49084;48.204;16.202;2022-11-15T14:40:20;8.00;99.90
62991;DHT22;49084;48.204;16.202;2022-11-15T14:42:48;8.00;99.90
62991;DHT22;49084;48.204;16.202;2022-11-15T14:45:19;8.10;99.90
62991;DHT22;49084;48.204;16.202;2022-11-15T14:47:45;8.00;99.90
62991;DHT22;49084;48.204;16.202;2022-11-15T14:50:19;8.10;99.90
62991;DHT22;49084;48.204;16.202;2022-11-15T14:52:46;8.10;99.90
62991;DHT22;49084;48.204;16.202;2022-11-15T14:55:29;8.10;99.90
62991;DHT22;49084;48.204;16.202;2022-11-15T14:57:57;8.10;99.90
62991;DHT22;49084;48.204;16.202;2022-11-15T15:00:24;8.10;99.90
62991;DHT22;49084;48.204;16.202;2022-11-15T15:02:52;8.10;99.90
62991;DHT22;49084;48.204;16.202;2022-11-15T15:05:21;8.10;99.90
62991;DHT22;49084;48.204;16.202;2022-11-15T15:07:49;8.10;99.90
62991;DHT22;49084;48.204;16.202;2022-11-15T15:10:16;8.10;99.90
62991;DHT22;49084;48.204;16.202;2022-11-15T15:12:41;8.20;99.90
62991;DHT22;49084;48.204;16.202;2022-11-15T15:15:16;8.10;99.90
62991;DHT22;49084;48.204;16.202;2022-11-15T15:17:42;8.20;99.90
62991;DHT22;49084;48.204;16.202;2022-11-15T15:20:09;8.20;99.90
62991;DHT22;49084;48.204;16.202;2022-11-15T15:22:34;8.20;99.90
62991;DHT22;49084;48.204;16.202;2022-11-15T15:25:00;8.10;99.90
62991;DHT22;49084;48.204;16.202;2022-11-15T15:27:26;8.20;99.90
62991;DHT22;49084;48.204;16.202;2022-11-15T15:29:51;8.20;99.90
62991;DHT22;49084;48.204;16.202;2022-11-15T15:32:17;8.20;99.90
62991;DHT22;49084;48.204;16.202;2022-11-15T15:34:43;8.20;99.90
62991;DHT22;49084;48.204;16.202;2022-11-15T15:39:44;8.20;99.90
62991;DHT22;49084;48.204;16.202;2022-11-15T15:42:10;8.10;99.90
62991;DHT22;49084;48.204;16.202;2022-11-15T15:44:35;8.10;99.90
62991;DHT22;49084;48.204;16.202;2022-11-15T15:47:01;8.20;99.90
62991;DHT22;49084;48.204;16.202;2022-11-15T15:49:27;8.20;99.90
62991;DHT22;49084;48.204;16.202;2022-11-15T15:51:52;8.20;99.90
62991;DHT22;49084;48.204;16.202;2022-11-15T15:54:18;8.20;99.90
62991;DHT22;49084;48.204;16.202;2022-11-15T15:56:44;8.20;99.90
62991;DHT22;49084;48.204;16.202;2022-11-15T15:59:09;8.20;99.90
62991;DHT22;49084;48.204;16.202;2022-11-15T16:01:35;8.20;99.90
62991;DHT22;49084;48.204;16.202;2022-11-15T16:04:00;8.30;99.90
62991;DHT22;49084;48.204;16.202;2022-11-15T16:06:35;8.20;99.90
62991;DHT22;49084;48.204;16.202;2022-11-15T16:09:02;8.20;99.90
62991;DHT22;49084;48.204;16.202;2022-11-15T16:11:28;8.20;99.90
62991;DHT22;49084;48.204;16.202;2022-11-15T16:13:54;8.30;99.90
62991;DHT22;49084;48.204;16.202;2022-11-15T16:16:21;8.20;99.90
62991;DHT22;49084;48.204;16.202;2022-11-15T16:18:47;8.20;99.90
62991;DHT22;49084;48.204;16.202;2022-11-15T16:21:13;8.30;99.90
62991;DHT22;49084;48.204;16.202;2022-11-15T16:23:39;8.30;99.90
62991;DHT22;49084;48.204;16.202;2022-11-15T16:26:25;8.30;99.90
62991;DHT22;49084;48.204;16.202;2022-11-15T16:28:51;8.30;99.90
62991;DHT22;49084;48.204;16.202;2022-11-15T16:31:18;8.30;99.90
62991;DHT22;49084;48.204;16.202;2022-11-15T16:33:45;8.30;99.90
62991;DHT22;49084;48.204;16.202;2022-11-15T16:36:25;8.30;99.90
62991;DHT22;49084;48.204;16.202;2022-11-15T16:38:51;8.40;99.90
62991;DHT22;49084;48.204;16.202;2022-11-15T16:41:18;8.40;99.90
62991;DHT22;49084;48.204;16.202;2022-11-15T16:43:50;8.40;99.90
62991;DHT22;49084;48.204;16.202;2022-11-15T16:46:21;8.40;99.90
62991;DHT22;49084;48.204;16.202;2022-11-15T16:48:48;8.40;99.90
62991;DHT22;49084;48.204;16.202;2022-11-15T16:51:14;8.40;99.90
62991;DHT22;49084;48.204;16.202;2022-11-15T16:53:40;8.40;99.90
62991;DHT22;49084;48.204;16.202;2022-11-15T16:58:42;8.40;99.90
62991;DHT22;49084;48.204;16.202;2022-11-15T17:01:21;8.40;99.90
62991;DHT22;49084;48.204;16.202;2022-11-15T17:03:47;8.30;99.90
62991;DHT22;49084;48.204;16.202;2022-11-15T17:06:13;8.30;99.90
62991;DHT22;49084;48.204;16.202;2022-11-15T17:08:40;8.20;99.90
62991;DHT22;49084;48.204;16.202;2022-11-15T17:11:07;8.20;99.90
62991;DHT22;49084;48.204;16.202;2022-11-15T17:13:33;8.20;99.90
62991;DHT22;49084;48.204;16.202;2022-11-15T17:16:10;8.20;99.90
62991;DHT22;49084;48.204;16.202;2022-11-15T17:18:37;8.20;99.90
62991;DHT22;49084;48.204;16.202;2022-11-15T17:21:09;8.20;99.90
62991;DHT22;49084;48.204;16.202;2022-11-15T17:23:36;8.20;99.90
62991;DHT22;49084;48.204;16.202;2022-11-15T17:26:03;8.20;99.90